METAR Data
IDs: Format: Raw Decoded Include TAF

Data at: 2152 UTC 18 Sep 2018

KMIE 182053Z 03004KT 10SM FEW070 33/17 A2991 RMK AO2 SLP116 T03330167 56011
KMIE 181953Z 01008KT 10SM BKN065 34/16 A2991 RMK AO2 SLP116 T03390161
KMIE 181853Z 26007KT 9SM FEW060 33/16 A2993 RMK AO2 SLP123 T03280161
KMIE 181753Z 25004KT 9SM CLR 33/17 A2994 RMK AO2 SLP127 T03280167 10328 20194 56011
KMIE 181653Z 31005KT 10SM CLR 32/17 A2995 RMK AO2 SLP129 T03170167
KMIE 181553Z VRB03KT 10SM CLR 31/18 A2996 RMK AO2 SLP134 T03060178
KMIE 181453Z 00000KT 10SM CLR 30/19 A2997 RMK AO2 SLP138 T03000189 50003
KMIE 181353Z 00000KT 10SM FEW060 27/20 A2998 RMK AO2 SLP141 T02720200
KMIE 181253Z 00000KT 10SM BKN070 22/19 A2997 RMK AO2 SLP140 T02170189
KMIE 181153Z 00000KT 10SM FEW065 19/18 A2997 RMK AO2 SLP137 T01940178 10211 20183 53010
KMIE 181053Z 00000KT 10SM CLR 19/17 A2995 RMK AO2 SLP131 T01890172
KMIE 180953Z 00000KT 10SM CLR 20/18 A2995 RMK AO2 SLP128 T02000178
KMIE 180853Z 00000KT 10SM CLR 19/17 A2994 RMK AO2 SLP126 T01890167 57003
KMIE 180753Z 00000KT 10SM FEW070 SCT085 20/18 A2994 RMK AO2 SLP126 T02000183
KMIE 180653Z 00000KT 10SM CLR 21/18 A2995 RMK AO2 SLP128 T02060183
KMIE 180553Z 00000KT 10SM FEW075 20/18 A2995 RMK AO2 SLP130 T02000178 10261 20194 50003
KMIE 180453Z 00000KT 10SM FEW080 21/18 A2995 RMK AO2 SLP130 T02060183 403280200
KMIE 180353Z 00000KT 10SM CLR 21/18 A2995 RMK AO2 SLP129 T02060178
KMIE 180253Z 00000KT 10SM CLR 22/18 A2994 RMK AO2 SLP127 T02170183 51012
KMIE 180153Z 00000KT 10SM CLR 22/19 A2994 RMK AO2 SLP127 T02220189
KMIE 180053Z 00000KT 10SM CLR 25/19 A2992 RMK AO2 SLP121 T02500189
KMIE 172353Z 00000KT 10SM CLR 26/19 A2990 RMK AO2 SLP115 T02610189 10328 20261 53006
KMIE 172253Z 36004KT 10SM CLR 31/18 A2989 RMK AO2 SLP109 T03060183
KMIE 172153Z 02008KT 10SM CLR 32/18 A2988 RMK AO2 SLP106 T03170178
KMIE 172053Z 01005KT 10SM SCT047 SCT060 SCT100 31/18 A2988 RMK AO2 SLP107 T03110183 56016
KMIE 171953Z 02004KT 10SM FEW050 BKN100 32/19 A2989 RMK AO2 SLP109 T03170189
KMIE 171853Z VRB05KT 10SM SCT100 31/19 A2991 RMK AO2 SLP116 T03110189
KMIE 171753Z 01011KT 10SM BKN038 BKN045 29/19 A2993 RMK AO2 SLP124 T02890194 10300 20211 58013
KMIE 171653Z 04010KT 10SM CLR 29/19 A2995 RMK AO2 SLP128 T02940194
KMIE 171553Z 36007KT 10SM CLR 29/20 A2996 RMK AO2 SLP133 T02890200
KMIE 171453Z 00000KT 10SM SCT055 26/20 A2997 RMK AO2 SLP139 T02610200 53001
KMIE 171353Z 36003KT 10SM CLR 24/20 A2997 RMK AO2 SLP137 T02390200
KMIE 171253Z 02004KT 10SM CLR 22/19 A2996 RMK AO2 SLP136 T02220194
KMIE 171153Z 36003KT 10SM CLR 21/19 A2997 RMK AO2 SLP138 60000 T02110189 10211 20206 53002 $
KMIE 171053Z 00000KT 10SM OVC110 21/19 A2996 RMK AO2 SLP133 T02110189 $
KMIE 170953Z AUTO 01003KT 10SM SCT120 21/19 A2996 RMK AO2 SLP134 T02110189 $